Time;durP1;ratioP1;P1;durP2;ratioP2;P2;SDS_P1;SDS_P2;PMS_P1;PMS_P2;Temp;Humidity;BMP_temperature;BMP_pressure;BME280_temperature;BME280_humidity;BME280_pressure;Samples;Min_cycle;Max_cycle;Signal;HPM_P1;HPM_P2
2022/06/04 00:00:48;;;;;;;9.20;5.35;;;12.80;99.90;;;;;;5007944;28;20034;-65
2022/06/04 00:03:15;;;;;;;12.75;6.47;;;12.70;99.90;;;;;;5020124;28;20038;-65
2022/06/04 00:05:44;;;;;;;10.25;5.95;;;12.70;99.90;;;;;;5010086;28;20044;-64
2022/06/04 00:08:11;;;;;;;9.48;6.20;;;12.70;99.90;;;;;;5007899;28;20417;-64
2022/06/04 00:16:16;;;;;;;13.23;5.80;;;12.70;99.90;;;;;;5009010;28;20038;-64
2022/06/04 00:18:43;;;;;;;10.38;5.95;;;12.60;99.90;;;;;;5010258;28;20026;-64
2022/06/04 00:21:10;;;;;;;10.13;6.00;;;12.60;99.90;;;;;;5011096;28;20050;-64
2022/06/04 00:23:36;;;;;;;9.85;6.15;;;12.40;99.90;;;;;;5016339;28;20040;-64
2022/06/04 00:26:04;;;;;;;7.60;5.95;;;12.50;99.90;;;;;;5009948;28;20049;-64
2022/06/04 00:28:30;;;;;;;9.40;6.18;;;12.50;99.90;;;;;;4997931;28;20048;-65
2022/06/04 00:30:58;;;;;;;9.73;5.80;;;12.50;99.90;;;;;;5010151;28;20117;-64
2022/06/04 00:33:24;;;;;;;9.32;5.50;;;12.40;99.90;;;;;;5017360;28;20058;-63
2022/06/04 00:35:53;;;;;;;7.90;5.75;;;12.40;99.90;;;;;;5009305;28;20112;-64
2022/06/04 00:38:20;;;;;;;8.02;5.75;;;12.40;99.90;;;;;;5009602;28;20114;-64
2022/06/04 00:41:11;;;;;;;9.85;5.85;;;12.30;99.90;;;;;;5009781;28;20113;-64
2022/06/04 00:43:56;;;;;;;9.32;6.05;;;12.40;99.90;;;;;;5008107;28;20397;-64
2022/06/04 00:46:40;;;;;;;9.38;6.00;;;12.30;99.90;;;;;;5008683;28;20466;-64
2022/06/04 00:49:10;;;;;;;9.43;5.72;;;12.40;99.90;;;;;;5009757;28;20038;-64
2022/06/04 00:51:37;;;;;;;11.30;6.18;;;12.30;99.90;;;;;;5003196;28;20031;-64
2022/06/04 00:54:04;;;;;;;9.90;5.57;;;12.30;99.90;;;;;;5008778;28;20503;-64
2022/06/04 00:56:49;;;;;;;11.82;6.45;;;12.20;99.90;;;;;;5009428;28;20045;-65
2022/06/04 00:59:14;;;;;;;;;;;12.20;99.90;;;;;;4996484;28;20046;-64
2022/06/04 01:02:01;;;;;;;9.48;5.70;;;12.10;99.90;;;;;;5020837;28;19917;-64
2022/06/04 01:04:49;;;;;;;11.68;5.85;;;12.10;99.90;;;;;;5005921;28;20476;-64
2022/06/04 01:07:53;;;;;;;7.63;5.43;;;12.00;99.90;;;;;;5007373;28;20042;-64
2022/06/04 01:10:49;;;;;;;12.07;5.63;;;12.00;99.90;;;;;;5007900;28;20356;-64
2022/06/04 01:14:07;;;;;;;9.15;5.82;;;12.10;99.90;;;;;;5013878;28;20048;-64
2022/06/04 01:16:45;;;;;;;10.18;6.32;;;12.00;99.90;;;;;;4936366;29;20119;-64
2022/06/04 01:19:26;;;;;;;11.85;5.80;;;12.00;99.90;;;;;;5006178;28;20045;-64
2022/06/04 01:22:29;;;;;;;11.77;6.43;;;12.00;99.90;;;;;;5013074;28;20384;-64
2022/06/04 01:25:16;;;;;;;11.27;5.95;;;12.10;99.90;;;;;;5007567;28;20046;-64
2022/06/04 01:27:50;;;;;;;13.63;6.50;;;12.00;99.90;;;;;;5041614;28;20054;-63
2022/06/04 01:30:20;;;;;;;11.85;6.40;;;12.00;99.90;;;;;;5009338;28;20050;-63
2022/06/04 01:32:57;;;;;;;10.68;6.47;;;11.90;99.90;;;;;;5014758;28;20045;-64
2022/06/04 01:35:32;;;;;;;12.38;6.65;;;11.90;99.90;;;;;;4968628;28;20081;-64
2022/06/04 01:38:17;;;;;;;11.52;6.88;;;11.90;99.90;;;;;;4970100;28;20075;-64
2022/06/04 01:41:08;;;;;;;9.65;6.10;;;11.80;99.90;;;;;;4969704;28;20057;-63
2022/06/04 01:43:52;;;;;;;11.95;6.68;;;12.00;99.90;;;;;;4975497;28;20414;-63
2022/06/04 01:46:39;;;;;;;9.63;6.13;;;11.90;99.90;;;;;;4969032;28;20053;-64
2022/06/04 01:49:13;;;;;;;10.40;6.45;;;11.80;99.90;;;;;;4969961;28;20054;-63
2022/06/04 01:51:39;;;;;;;12.10;6.55;;;11.70;99.90;;;;;;4957610;28;20041;-65
2022/06/04 01:54:17;;;;;;;11.80;6.85;;;11.90;99.90;;;;;;4968410;28;20043;-64
2022/06/04 01:56:51;;;;;;;11.90;6.38;;;11.80;99.90;;;;;;4971525;28;20046;-64
2022/06/04 01:59:20;;;;;;;15.48;6.93;;;11.80;99.90;;;;;;4973407;28;20053;-65
2022/06/04 02:01:48;;;;;;;11.73;6.80;;;11.80;99.90;;;;;;4978060;28;20092;-63
2022/06/04 02:04:18;;;;;;;12.50;6.78;;;11.70;99.90;;;;;;4999229;28;20047;-64
2022/06/04 02:09:40;;;;;;;14.98;7.00;;;11.60;99.90;;;;;;4972043;28;20055;-63
2022/06/04 02:12:08;;;;;;;11.35;7.28;;;11.60;99.90;;;;;;4977019;28;20054;-64
2022/06/04 02:14:34;;;;;;;12.13;7.10;;;11.60;99.90;;;;;;4972829;28;20038;-64
2022/06/04 02:17:05;;;;;;;14.15;7.53;;;11.60;99.90;;;;;;4972143;28;20111;-64
2022/06/04 02:19:31;;;;;;;12.32;7.43;;;11.60;99.90;;;;;;4981773;28;20112;-65
2022/06/04 02:21:57;;;;;;;13.75;7.45;;;11.40;99.90;;;;;;4976784;28;20049;-64
2022/06/04 02:24:23;;;;;;;12.15;7.47;;;11.40;99.90;;;;;;4972734;28;20039;-64
2022/06/04 02:26:49;;;;;;;11.77;7.50;;;11.50;99.90;;;;;;4972190;28;20055;-64
2022/06/04 02:29:15;;;;;;;12.75;7.32;;;11.40;99.90;;;;;;4972718;28;20046;-63
2022/06/04 02:32:09;;;;;;;12.05;7.32;;;11.50;99.90;;;;;;4974598;28;20420;-64
2022/06/04 02:34:54;;;;;;;12.50;7.90;;;11.40;99.90;;;;;;5006706;28;20084;-63
2022/06/04 02:37:28;;;;;;;15.98;7.85;;;11.50;99.90;;;;;;4995567;28;20068;-64
2022/06/04 02:40:07;;;;;;;13.70;8.40;;;11.50;99.90;;;;;;5010120;28;20026;-64
2022/06/04 02:43:00;;;;;;;13.93;7.90;;;11.40;99.90;;;;;;4983462;28;20412;-64
2022/06/04 02:45:44;;;;;;;12.60;8.13;;;11.40;99.90;;;;;;5010862;28;20041;-64
2022/06/04 02:48:18;;;;;;;13.30;8.40;;;11.30;99.90;;;;;;4997693;28;20060;-65
2022/06/04 02:51:06;;;;;;;16.88;8.20;;;11.30;99.90;;;;;;5011683;28;20046;-63
2022/06/04 02:53:33;;;;;;;13.20;8.13;;;11.30;99.90;;;;;;5019432;28;20375;-64
2022/06/04 02:56:06;;;;;;;17.08;8.68;;;11.30;99.90;;;;;;4996544;28;20045;-65
2022/06/04 02:58:33;;;;;;;13.90;8.63;;;11.30;99.90;;;;;;5009061;28;20041;-65
2022/06/04 03:01:01;;;;;;;14.88;9.70;;;11.30;99.90;;;;;;5011116;28;20060;-65
2022/06/04 03:03:27;;;;;;;15.93;9.73;;;11.20;99.90;;;;;;4999923;28;20037;-64
2022/06/04 03:05:59;;;;;;;13.85;8.63;;;11.30;99.90;;;;;;4998219;28;20555;-64
2022/06/04 03:08:31;;;;;;;17.17;9.85;;;11.30;99.90;;;;;;4998436;28;20046;-64
2022/06/04 03:10:59;;;;;;;12.73;9.27;;;11.30;99.90;;;;;;5011134;28;20034;-64
2022/06/04 03:13:24;;;;;;;17.23;9.82;;;11.20;99.90;;;;;;4996893;28;20049;-64
2022/06/04 03:15:51;;;;;;;14.43;9.90;;;11.20;99.90;;;;;;5010910;28;20034;-64
2022/06/04 03:18:18;;;;;;;16.02;10.27;;;11.20;99.90;;;;;;4981335;28;20077;-64
2022/06/04 03:20:44;;;;;;;15.85;10.95;;;11.20;99.90;;;;;;5020587;28;20121;-64
2022/06/04 03:23:10;;;;;;;15.00;10.18;;;11.00;99.90;;;;;;5012059;28;20534;-64
2022/06/04 03:25:38;;;;;;;14.23;9.48;;;11.10;99.90;;;;;;4996728;28;20041;-63
2022/06/04 03:28:05;;;;;;;17.60;10.13;;;11.00;99.90;;;;;;5010661;28;20033;-64
2022/06/04 03:30:31;;;;;;;17.30;11.00;;;11.20;99.90;;;;;;5010589;28;20037;-65
2022/06/04 03:32:57;;;;;;;16.33;10.00;;;11.10;99.90;;;;;;4997570;28;20083;-63
2022/06/04 03:35:23;;;;;;;16.75;9.98;;;11.20;99.90;;;;;;4998260;28;20050;-65
2022/06/04 03:37:49;;;;;;;15.55;10.15;;;11.10;99.90;;;;;;4998570;28;20094;-65
2022/06/04 03:40:15;;;;;;;20.63;10.15;;;11.10;99.90;;;;;;5010656;28;20034;-63
2022/06/04 03:42:41;;;;;;;16.50;10.18;;;11.10;99.90;;;;;;4999169;28;20034;-64
2022/06/04 03:45:09;;;;;;;13.38;10.20;;;11.10;99.90;;;;;;5020352;28;20422;-64
2022/06/04 03:47:37;;;;;;;14.68;9.60;;;11.10;99.90;;;;;;4997385;28;20038;-65
2022/06/04 03:50:14;;;;;;;15.95;10.05;;;11.10;99.90;;;;;;4984743;28;20038;-64
2022/06/04 03:52:40;;;;;;;19.33;10.30;;;11.10;99.90;;;;;;4999745;28;20046;-64
2022/06/04 03:55:06;;;;;;;15.80;9.30;;;11.20;99.90;;;;;;5020097;28;20046;-65
2022/06/04 04:00:38;;;;;;;16.17;9.55;;;11.30;99.90;;;;;;5004853;28;20037;-64
2022/06/04 04:03:14;;;;;;;17.45;9.23;;;11.20;99.90;;;;;;5012280;28;20034;-64
2022/06/04 04:05:46;;;;;;;15.73;9.27;;;11.30;99.90;;;;;;4997207;28;20038;-64
2022/06/04 04:08:12;;;;;;;17.95;9.52;;;11.30;99.90;;;;;;5018165;28;20049;-64
2022/06/04 04:10:40;;;;;;;16.58;10.05;;;11.20;99.90;;;;;;4995138;28;20052;-64
2022/06/04 04:13:06;;;;;;;15.38;8.73;;;11.30;99.90;;;;;;5013942;28;20091;-64
2022/06/04 04:15:32;;;;;;;16.90;9.00;;;11.30;99.90;;;;;;4996633;28;20070;-64
2022/06/04 04:17:58;;;;;;;17.10;8.50;;;11.30;99.90;;;;;;5009106;28;20065;-64
2022/06/04 04:20:30;;;;;;;14.88;8.82;;;11.30;99.90;;;;;;5019341;28;20429;-65
2022/06/04 04:22:57;;;;;;;14.85;8.48;;;11.40;99.90;;;;;;5013783;28;20033;-64
2022/06/04 04:25:25;;;;;;;13.95;8.15;;;11.40;99.90;;;;;;5009803;28;20049;-63
2022/06/04 04:27:52;;;;;;;12.32;7.75;;;11.50;99.90;;;;;;4994867;28;20050;-64
2022/06/04 04:30:22;;;;;;;14.20;7.75;;;11.60;99.90;;;;;;4995971;28;20049;-64
2022/06/04 04:32:48;;;;;;;17.70;8.48;;;11.60;99.90;;;;;;4995414;28;20034;-64
2022/06/04 04:35:22;;;;;;;10.98;7.45;;;11.70;99.90;;;;;;4968844;28;20426;-64
2022/06/04 04:37:48;;;;;;;11.27;7.40;;;11.70;99.90;;;;;;4964449;28;20349;-64
2022/06/04 04:40:17;;;;;;;12.85;7.70;;;11.80;99.90;;;;;;4969843;28;20049;-63
2022/06/04 04:42:43;;;;;;;11.00;6.95;;;11.80;99.90;;;;;;4969666;28;20039;-64
2022/06/04 04:45:10;;;;;;;15.82;7.47;;;11.90;99.90;;;;;;4968600;28;20047;-64
2022/06/04 04:47:41;;;;;;;11.60;6.50;;;11.90;99.90;;;;;;4968698;28;20535;-64
2022/06/04 04:50:12;;;;;;;12.35;7.03;;;12.00;99.90;;;;;;4968380;28;20035;-64
2022/06/04 04:52:37;;;;;;;14.88;7.22;;;12.10;99.90;;;;;;4969346;28;20512;-65
2022/06/04 04:55:03;;;;;;;14.02;7.05;;;12.20;99.90;;;;;;4968046;28;20065;-64
2022/06/04 04:57:29;;;;;;;11.02;6.47;;;12.30;99.90;;;;;;4968798;28;20557;-64
2022/06/04 04:59:54;;;;;;;12.80;6.32;;;12.20;99.90;;;;;;4969640;28;20074;-64
2022/06/04 05:02:20;;;;;;;11.50;6.30;;;12.30;99.90;;;;;;4983221;28;20054;-65
2022/06/04 05:04:46;;;;;;;10.13;6.47;;;12.20;99.90;;;;;;4969413;28;20118;-64
2022/06/04 05:07:12;;;;;;;11.60;6.07;;;12.30;99.90;;;;;;4995944;28;20051;-64
2022/06/04 05:09:39;;;;;;;12.52;5.80;;;12.70;99.90;;;;;;4968868;28;20045;-64
2022/06/04 05:12:08;;;;;;;10.00;5.57;;;13.40;99.90;;;;;;4970197;28;20141;-66
2022/06/04 05:14:34;;;;;;;11.35;5.18;;;14.10;99.90;;;;;;4968347;28;20042;-62
2022/06/04 05:17:00;;;;;;;10.85;5.90;;;14.80;99.90;;;;;;4969125;28;20042;-66
2022/06/04 05:19:25;;;;;;;8.65;5.13;;;15.20;99.90;;;;;;4969901;28;20389;-64
2022/06/04 05:21:52;;;;;;;8.55;5.28;;;15.30;99.90;;;;;;4968699;28;20519;-64
2022/06/04 05:24:31;;;;;;;11.48;5.85;;;15.40;99.90;;;;;;4969605;28;20133;-63
2022/06/04 05:26:57;;;;;;;8.60;5.20;;;15.40;99.90;;;;;;4969487;28;20070;-64
2022/06/04 05:29:23;;;;;;;8.82;4.78;;;15.60;99.90;;;;;;4968695;28;20406;-63
2022/06/04 05:31:52;;;;;;;7.53;4.40;;;16.00;99.90;;;;;;4969526;28;20336;-64
2022/06/04 05:34:19;;;;;;;12.52;4.60;;;16.30;99.90;;;;;;4979853;28;20077;-64
2022/06/04 05:36:46;;;;;;;8.23;4.40;;;16.60;99.90;;;;;;4987858;28;20046;-63
2022/06/04 05:39:13;;;;;;;11.32;4.60;;;16.70;99.90;;;;;;4988069;28;20049;-65
2022/06/04 05:41:39;;;;;;;7.38;4.10;;;16.70;99.90;;;;;;4971371;28;20049;-64
2022/06/04 05:44:06;;;;;;;12.13;5.03;;;16.70;99.90;;;;;;4987423;28;20053;-64
2022/06/04 05:46:32;;;;;;;12.10;4.55;;;16.60;99.90;;;;;;4989224;28;20114;-64
2022/06/04 05:48:59;;;;;;;6.95;3.80;;;16.60;99.90;;;;;;4988361;28;20038;-64
2022/06/04 05:51:27;;;;;;;8.35;4.68;;;17.00;99.90;;;;;;4988460;28;20427;-64
2022/06/04 05:53:53;;;;;;;8.23;3.75;;;17.10;99.90;;;;;;4987260;28;20061;-64
2022/06/04 05:56:28;;;;;;;7.55;4.45;;;17.00;99.90;;;;;;4988261;28;20477;-63
2022/06/04 05:58:59;;;;;;;9.52;4.03;;;17.00;99.90;;;;;;4987354;28;20340;-64
2022/06/04 06:01:27;;;;;;;9.07;4.07;;;16.90;99.90;;;;;;4988504;28;20037;-64
2022/06/04 06:03:53;;;;;;;6.82;3.67;;;16.90;99.90;;;;;;4988625;28;20425;-64
2022/06/04 06:06:23;;;;;;;9.45;4.05;;;16.50;99.90;;;;;;4987725;28;20046;-64
2022/06/04 06:08:49;;;;;;;9.55;4.05;;;16.40;99.90;;;;;;4985274;28;20069;-65
2022/06/04 06:11:17;;;;;;;6.68;3.55;;;16.50;99.90;;;;;;4998676;28;20051;-64
2022/06/04 06:13:44;;;;;;;8.32;4.35;;;17.10;99.90;;;;;;4987233;28;20038;-64
2022/06/04 06:16:15;;;;;;;9.75;4.10;;;17.50;99.90;;;;;;4987501;28;20130;-64
2022/06/04 06:18:41;;;;;;;7.20;3.50;;;18.00;99.90;;;;;;4987494;28;20585;-64
2022/06/04 06:21:15;;;;;;;6.93;3.90;;;18.10;99.90;;;;;;4985066;28;20125;-65
2022/06/04 06:23:41;;;;;;;9.32;3.33;;;18.00;99.90;;;;;;5017178;28;20066;-64
2022/06/04 06:26:13;;;;;;;6.70;3.88;;;17.90;99.90;;;;;;4985169;28;20077;-64
2022/06/04 06:28:40;;;;;;;6.80;3.75;;;18.00;99.90;;;;;;4988681;28;20587;-64
2022/06/04 06:31:08;;;;;;;6.82;3.65;;;18.30;99.90;;;;;;4988533;28;20345;-64
2022/06/04 06:33:34;;;;;;;5.22;3.15;;;18.70;99.90;;;;;;4993333;28;20056;-63
2022/06/04 06:36:03;;;;;;;5.45;3.28;;;19.00;99.90;;;;;;5008200;28;20050;-65
2022/06/04 06:38:29;;;;;;;6.60;3.80;;;19.30;99.90;;;;;;4993489;28;20040;-64
2022/06/04 06:40:57;;;;;;;7.15;3.15;;;19.60;99.90;;;;;;5008119;28;20029;-64
2022/06/04 06:43:31;;;;;;;5.20;3.10;;;19.70;99.90;;;;;;4988966;28;20046;-65
2022/06/04 06:46:07;;;;;;;;;;;19.60;99.90;;;;;;4998444;28;20439;-64
2022/06/04 06:48:34;;;;;;;5.90;3.30;;;19.50;99.90;;;;;;5009545;28;19974;-65
2022/06/04 06:51:12;;;;;;;6.47;3.72;;;19.70;99.90;;;;;;5011321;28;20117;-65
2022/06/04 06:53:38;;;;;;;5.88;3.40;;;19.50;99.90;;;;;;4987127;28;20060;-64
2022/06/04 06:56:14;;;;;;;7.22;3.55;;;19.10;99.90;;;;;;4996447;28;20417;-64
2022/06/04 06:58:40;;;;;;;6.13;3.60;;;18.50;99.90;;;;;;5010799;28;20484;-63
2022/06/04 07:01:07;;;;;;;7.75;3.53;;;17.70;99.90;;;;;;5010836;28;20514;-64
2022/06/04 07:03:34;;;;;;;6.07;3.55;;;17.30;99.90;;;;;;5023430;28;20044;-64
2022/06/04 07:06:00;;;;;;;7.78;3.72;;;17.10;99.90;;;;;;5011171;28;20049;-65
2022/06/04 07:08:26;;;;;;;4.85;3.58;;;16.90;99.90;;;;;;5011163;28;20051;-65
2022/06/04 07:10:51;;;;;;;9.18;3.95;;;16.90;99.90;;;;;;4996380;28;20065;-63
2022/06/04 07:13:17;;;;;;;7.90;3.67;;;17.20;99.90;;;;;;4988511;28;20076;-64
2022/06/04 07:15:43;;;;;;;5.68;3.15;;;17.30;99.90;;;;;;4999100;28;20138;-63
2022/06/04 07:18:14;;;;;;;8.00;3.50;;;17.40;99.90;;;;;;4998451;28;20042;-64
2022/06/04 07:20:40;;;;;;;4.43;3.28;;;17.30;99.90;;;;;;4995348;28;20034;-63
2022/06/04 07:23:07;;;;;;;5.65;3.50;;;17.20;99.90;;;;;;4996567;28;20112;-63
2022/06/04 07:25:33;;;;;;;7.18;3.40;;;17.20;99.90;;;;;;5009941;28;20485;-63
2022/06/04 07:27:59;;;;;;;7.75;3.60;;;17.20;99.90;;;;;;5009396;28;20050;-63
2022/06/04 07:30:24;;;;;;;5.28;3.22;;;17.20;99.90;;;;;;5009504;28;20040;-62
2022/06/04 07:32:53;;;;;;;6.93;3.70;;;17.20;99.90;;;;;;5038259;28;20076;-62
2022/06/04 07:35:20;;;;;;;6.95;3.80;;;17.40;99.90;;;;;;5035463;28;20371;-64
2022/06/04 07:37:46;;;;;;;7.53;3.42;;;17.50;99.90;;;;;;5006612;28;20030;-64
2022/06/04 07:40:12;;;;;;;5.15;3.58;;;17.80;99.90;;;;;;5010723;28;20098;-64
2022/06/04 07:42:37;;;;;;;6.90;3.78;;;17.90;99.90;;;;;;5004237;28;20041;-64
2022/06/04 07:45:04;;;;;;;7.55;4.28;;;17.90;99.90;;;;;;4976777;28;20046;-63
2022/06/04 07:47:30;;;;;;;5.82;3.70;;;18.00;99.90;;;;;;5012206;28;20427;-65
2022/06/04 07:49:56;;;;;;;7.50;3.28;;;17.90;99.90;;;;;;5010086;28;20496;-64
2022/06/04 07:52:23;;;;;;;7.43;3.85;;;18.20;99.90;;;;;;5012816;28;20052;-64
2022/06/04 07:54:48;;;;;;;7.70;3.88;;;18.20;99.90;;;;;;5009510;28;20041;-67
2022/06/04 07:57:14;;;;;;;6.18;3.72;;;18.30;99.90;;;;;;5009961;28;20033;-64
2022/06/04 07:59:40;;;;;;;4.63;3.20;;;18.40;99.90;;;;;;5009864;28;20095;-64
2022/06/04 08:02:05;;;;;;;4.97;3.10;;;18.50;99.90;;;;;;5021284;28;20056;-64
2022/06/04 08:04:31;;;;;;;8.75;3.55;;;18.60;99.90;;;;;;5009746;28;20044;-65
2022/06/04 08:06:57;;;;;;;6.22;3.72;;;18.60;99.90;;;;;;4995476;28;20042;-64
2022/06/04 08:09:23;;;;;;;5.68;3.25;;;18.70;99.90;;;;;;5010081;28;20038;-62
2022/06/04 08:11:48;;;;;;;5.03;3.20;;;18.60;99.90;;;;;;5012248;28;20432;-63
2022/06/04 08:14:16;;;;;;;4.95;3.10;;;18.60;99.90;;;;;;5009502;28;20108;-64
2022/06/04 08:16:48;;;;;;;7.82;3.72;;;18.60;99.90;;;;;;4980822;28;20045;-65
2022/06/04 08:19:16;;;;;;;7.18;3.97;;;18.60;99.90;;;;;;5011224;28;20037;-64
2022/06/04 08:21:42;;;;;;;6.53;3.63;;;18.70;99.90;;;;;;5020662;28;20034;-64
2022/06/04 08:24:09;;;;;;;5.30;3.55;;;18.70;99.90;;;;;;5006743;28;20087;-64
2022/06/04 08:26:36;;;;;;;6.82;3.25;;;18.60;99.90;;;;;;5005738;28;20041;-63
2022/06/04 08:29:01;;;;;;;8.23;3.63;;;18.60;99.90;;;;;;4995788;28;20077;-63
2022/06/04 08:31:27;;;;;;;6.18;4.13;;;18.50;99.90;;;;;;4995158;28;20198;-64
2022/06/04 08:33:53;;;;;;;6.45;3.63;;;18.50;99.90;;;;;;5010595;28;20058;-64
2022/06/04 08:36:19;;;;;;;11.05;3.85;;;18.30;99.90;;;;;;5009323;28;20046;-64
2022/06/04 08:38:46;;;;;;;10.07;3.90;;;18.20;99.90;;;;;;5016851;28;20355;-64
2022/06/04 08:41:38;;;;;;;6.13;3.25;;;18.40;99.90;;;;;;4997281;28;20121;-63
2022/06/04 08:44:11;;;;;;;7.90;3.78;;;18.40;99.90;;;;;;5008098;28;20034;-63
2022/06/04 08:46:51;;;;;;;7.22;3.92;;;18.30;99.90;;;;;;5009637;28;20088;-63
2022/06/04 08:49:37;;;;;;;8.77;3.72;;;18.30;99.90;;;;;;5013008;28;20054;-63
2022/06/04 08:52:18;;;;;;;6.72;4.38;;;18.20;99.90;;;;;;5010281;28;20472;-64
2022/06/04 08:58:10;;;;;;;6.40;3.90;;;18.40;99.90;;;;;;5005817;28;20042;-62
2022/06/04 09:00:43;;;;;;;6.35;4.03;;;18.60;99.90;;;;;;5007523;28;20109;-63
2022/06/04 09:03:08;;;;;;;6.75;4.15;;;18.70;99.90;;;;;;5024227;28;20055;-63
2022/06/04 09:05:57;;;;;;;5.47;3.75;;;18.80;99.90;;;;;;5008634;28;20034;-63
2022/06/04 09:08:33;;;;;;;7.22;4.00;;;18.90;99.90;;;;;;4996689;28;20071;-64
2022/06/04 09:11:04;;;;;;;5.20;3.63;;;19.00;99.90;;;;;;5009771;28;20053;-61
2022/06/04 09:13:35;;;;;;;6.18;3.58;;;19.10;99.90;;;;;;5007939;28;20320;-63
2022/06/04 09:16:19;;;;;;;5.25;3.22;;;19.30;99.90;;;;;;5008783;28;20361;-64
2022/06/04 09:18:49;;;;;;;6.47;4.07;;;19.40;99.90;;;;;;5007141;28;20034;-63
2022/06/04 09:21:15;;;;;;;5.93;3.72;;;19.40;99.90;;;;;;5007695;28;20505;-63
2022/06/04 09:23:47;;;;;;;6.00;4.00;;;19.50;99.90;;;;;;5008928;28;20029;-64
2022/06/04 09:26:13;;;;;;;7.60;4.20;;;19.70;99.90;;;;;;5006059;28;20042;-64
2022/06/04 09:28:53;;;;;;;8.98;4.75;;;19.80;99.90;;;;;;5007635;28;20106;-63
2022/06/04 09:31:57;;;;;;;6.43;3.80;;;19.80;99.90;;;;;;5006921;28;20038;-63
2022/06/04 09:34:40;;;;;;;6.47;3.80;;;19.80;99.90;;;;;;5007169;28;20054;-64
2022/06/04 09:37:08;;;;;;;7.05;3.75;;;20.00;99.90;;;;;;4996698;28;20046;-63
2022/06/04 09:39:37;;;;;;;5.88;3.78;;;20.20;99.90;;;;;;5008752;28;20117;-63
2022/06/04 09:42:03;;;;;;;6.70;3.92;;;20.30;99.90;;;;;;5009713;28;20470;-64
2022/06/04 09:44:30;;;;;;;7.38;4.22;;;20.30;99.90;;;;;;5008420;28;20099;-63
2022/06/04 09:47:18;;;;;;;5.88;3.60;;;20.40;99.90;;;;;;5008777;28;20097;-63
2022/06/04 09:49:57;;;;;;;5.72;4.07;;;20.50;99.90;;;;;;5012407;28;20045;-68
2022/06/04 09:52:25;;;;;;;7.03;3.95;;;20.30;99.90;;;;;;5012129;28;20627;-64
2022/06/04 09:54:59;;;;;;;6.55;3.83;;;20.40;99.90;;;;;;5008317;28;20150;-65
2022/06/04 09:57:26;;;;;;;;;;;20.50;99.90;;;;;;5009087;28;20061;-66
2022/06/04 09:59:57;;;;;;;7.80;4.13;;;20.60;99.90;;;;;;5008477;28;20034;-66
2022/06/04 10:02:24;;;;;;;6.40;3.92;;;20.60;99.90;;;;;;5009384;28;20061;-67
2022/06/04 10:05:06;;;;;;;5.70;3.88;;;20.60;99.90;;;;;;4995457;28;20488;-66
2022/06/04 10:07:38;;;;;;;8.00;4.40;;;20.70;99.90;;;;;;4994651;28;20086;-66
2022/06/04 10:10:37;;;;;;;6.45;4.30;;;20.60;99.90;;;;;;5008495;28;20368;-66
2022/06/04 10:16:12;;;;;;;5.80;3.80;;;20.90;99.90;;;;;;5008078;28;20060;-67
2022/06/04 10:18:38;;;;;;;6.28;3.83;;;21.10;99.90;;;;;;5010561;28;20039;-68
2022/06/04 10:21:18;;;;;;;7.57;4.15;;;21.30;99.90;;;;;;5011262;28;20063;-67
2022/06/04 10:23:47;;;;;;;6.18;4.13;;;21.10;99.90;;;;;;5011075;28;20034;-66
2022/06/04 10:26:44;;;;;;;6.38;4.00;;;21.10;99.90;;;;;;5011865;28;20074;-67
2022/06/04 10:29:21;;;;;;;6.25;4.13;;;21.20;99.90;;;;;;5029725;28;20048;-67
2022/06/04 10:32:13;;;;;;;6.80;4.20;;;21.20;99.90;;;;;;5047725;28;20049;-68
2022/06/04 10:34:52;;;;;;;7.43;4.68;;;21.10;99.90;;;;;;5043551;28;20500;-67
2022/06/04 10:37:26;;;;;;;8.00;4.72;;;21.20;99.90;;;;;;5011071;28;20085;-68
2022/06/04 10:40:22;;;;;;;7.07;4.10;;;21.30;99.90;;;;;;5010414;28;20409;-67
2022/06/04 10:43:11;;;;;;;6.45;3.92;;;21.40;99.90;;;;;;5011442;28;20091;-67
2022/06/04 10:45:50;;;;;;;6.63;4.13;;;21.60;99.90;;;;;;5005418;28;20128;-67
2022/06/04 10:48:37;;;;;;;6.72;4.47;;;21.80;99.90;;;;;;5010476;28;20485;-67
2022/06/04 10:51:26;;;;;;;5.95;4.30;;;21.90;99.90;;;;;;5046364;28;20042;-67
2022/06/04 10:54:01;;;;;;;6.97;4.50;;;22.00;99.90;;;;;;5013688;28;20512;-67
2022/06/04 10:56:47;;;;;;;8.25;4.47;;;22.10;99.90;;;;;;5008845;28;20030;-66
2022/06/04 10:59:23;;;;;;;7.55;4.75;;;22.10;99.90;;;;;;5008833;28;20482;-67
2022/06/04 11:02:14;;;;;;;8.75;4.20;;;21.80;99.90;;;;;;5009840;28;20128;-67
2022/06/04 11:04:45;;;;;;;6.75;4.32;;;21.50;99.90;;;;;;5009355;28;20124;-67
2022/06/04 11:07:52;;;;;;;5.82;4.30;;;21.50;99.90;;;;;;5009033;28;20079;-66
2022/06/04 11:10:24;;;;;;;7.97;4.72;;;21.50;99.90;;;;;;5009608;28;20459;-68
2022/06/04 11:13:06;;;;;;;6.93;4.30;;;21.40;99.90;;;;;;4995070;28;20046;-67
2022/06/04 11:15:39;;;;;;;5.88;3.67;;;21.50;99.90;;;;;;5009106;28;20125;-66
2022/06/04 11:18:15;;;;;;;5.85;3.85;;;21.60;99.90;;;;;;5010860;28;20034;-67
2022/06/04 11:20:56;;;;;;;6.32;3.92;;;21.60;99.90;;;;;;5010887;28;20379;-66
2022/06/04 11:23:46;;;;;;;6.03;3.70;;;21.80;99.90;;;;;;5018384;28;20045;-67
2022/06/04 11:26:36;;;;;;;6.30;3.38;;;22.00;99.90;;;;;;5008757;28;20037;-67
2022/06/04 11:29:04;;;;;;;6.00;3.47;;;22.20;99.90;;;;;;5000623;28;20111;-66
2022/06/04 11:31:49;;;;;;;5.68;3.65;;;22.30;99.90;;;;;;4999345;28;20040;-68
2022/06/04 11:34:25;;;;;;;5.90;3.60;;;22.20;99.90;;;;;;5009576;28;20054;-67
2022/06/04 11:37:16;;;;;;;5.72;3.63;;;22.10;99.90;;;;;;5008484;28;20046;-67
2022/06/04 11:39:51;;;;;;;5.95;3.72;;;22.10;99.90;;;;;;5009901;28;20053;-67
2022/06/04 11:42:34;;;;;;;6.68;3.38;;;22.20;99.60;;;;;;5023194;28;20187;-66
2022/06/04 11:45:22;;;;;;;5.15;3.53;;;22.30;99.50;;;;;;5007277;28;20347;-66
2022/06/04 11:48:14;;;;;;;8.93;3.72;;;22.30;99.30;;;;;;5068578;28;20181;-67
2022/06/04 11:50:48;;;;;;;5.82;3.38;;;22.40;99.40;;;;;;5059271;28;20036;-67
2022/06/04 11:53:30;;;;;;;4.72;3.45;;;22.50;99.70;;;;;;5010623;28;20038;-67
2022/06/04 11:55:58;;;;;;;4.60;2.95;;;22.90;99.00;;;;;;5013697;28;20041;-67
2022/06/04 11:58:55;;;;;;;5.53;3.22;;;23.10;98.70;;;;;;5024114;28;20033;-68
2022/06/04 12:01:32;;;;;;;6.10;3.70;;;23.20;98.60;;;;;;5053896;28;20075;-67
2022/06/04 12:04:16;;;;;;;5.70;3.30;;;23.40;98.20;;;;;;4993674;28;20065;-66
2022/06/04 12:06:52;;;;;;;5.32;3.08;;;23.50;98.00;;;;;;5006410;28;20497;-68
2022/06/04 12:09:35;;;;;;;6.82;3.40;;;23.40;98.20;;;;;;5004077;28;20072;-66
2022/06/04 12:12:12;;;;;;;4.57;2.55;;;23.50;97.80;;;;;;5003685;28;20098;-66
2022/06/04 12:14:48;;;;;;;5.03;3.00;;;23.40;97.50;;;;;;4996511;28;20092;-67
2022/06/04 12:17:17;;;;;;;6.72;3.00;;;23.30;97.60;;;;;;5013631;28;20037;-66
2022/06/04 12:25:39;;;;;;;5.00;3.25;;;22.70;98.20;;;;;;5007780;28;20045;-67
2022/06/04 12:28:27;;;;;;;5.70;2.80;;;22.60;98.40;;;;;;4997634;28;20077;-66
2022/06/04 12:30:54;;;;;;;7.20;3.00;;;22.60;98.20;;;;;;5023602;28;20042;-67
2022/06/04 12:33:46;;;;;;;5.63;3.03;;;22.50;98.00;;;;;;5009001;28;20061;-66
2022/06/04 12:36:25;;;;;;;5.05;2.90;;;22.40;98.40;;;;;;4996532;28;20054;-66
2022/06/04 12:39:00;;;;;;;4.80;3.15;;;22.50;98.40;;;;;;5018155;28;20046;-66
2022/06/04 12:41:38;;;;;;;4.47;2.90;;;22.50;98.40;;;;;;5034182;28;20041;-66
2022/06/04 12:44:05;;;;;;;6.47;2.92;;;22.50;98.50;;;;;;5025711;28;20423;-67
2022/06/04 12:46:33;;;;;;;8.40;3.22;;;22.60;98.60;;;;;;4981393;28;20458;-67
2022/06/04 12:49:12;;;;;;;5.50;2.42;;;22.70;98.10;;;;;;4982599;28;20038;-67
2022/06/04 12:51:58;;;;;;;4.80;3.03;;;22.80;98.30;;;;;;4996388;28;20056;-66
2022/06/04 12:54:46;;;;;;;5.75;2.83;;;22.90;97.90;;;;;;4998987;28;20049;-66
2022/06/04 12:57:28;;;;;;;5.32;2.92;;;23.10;97.60;;;;;;5041207;28;20050;-66
2022/06/04 13:00:18;;;;;;;4.57;2.90;;;23.00;98.00;;;;;;4996124;28;20477;-66
2022/06/04 13:02:56;;;;;;;5.95;2.92;;;23.00;98.20;;;;;;5010269;28;20459;-67
2022/06/04 13:05:25;;;;;;;5.20;2.88;;;23.00;97.70;;;;;;5008957;28;20510;-67
2022/06/04 13:08:06;;;;;;;5.60;2.95;;;22.80;98.10;;;;;;5009172;28;20539;-63
2022/06/04 13:10:50;;;;;;;5.70;3.15;;;22.90;97.70;;;;;;4997109;28;20126;-62
2022/06/04 13:13:36;;;;;;;6.18;3.22;;;22.90;97.60;;;;;;5011443;28;20049;-68
2022/06/04 13:16:05;;;;;;;4.45;2.70;;;22.80;98.00;;;;;;5008492;28;20048;-68
2022/06/04 13:18:35;;;;;;;4.63;2.90;;;22.90;97.90;;;;;;4996703;28;20052;-68
2022/06/04 13:21:03;;;;;;;5.78;3.22;;;23.00;97.70;;;;;;4997203;28;20282;-68
2022/06/04 13:23:36;;;;;;;5.38;2.92;;;23.10;97.60;;;;;;5008383;28;20036;-68
2022/06/04 13:26:21;;;;;;;6.72;2.80;;;23.10;97.60;;;;;;5000645;28;20808;-68
2022/06/04 13:28:49;;;;;;;5.85;3.00;;;23.30;97.30;;;;;;5006656;28;20034;-70
2022/06/04 13:31:22;;;;;;;5.45;2.88;;;23.40;96.60;;;;;;5008858;28;20046;-68
2022/06/04 13:33:49;;;;;;;4.65;3.10;;;23.40;96.60;;;;;;5020470;28;20053;-70
2022/06/04 13:36:19;;;;;;;4.13;2.72;;;23.50;96.70;;;;;;4997003;28;20056;-68